Time;durP1;ratioP1;P1;durP2;ratioP2;P2;SDS_P1;SDS_P2;PMS_P1;PMS_P2;Temp;Humidity;BMP_temperature;BMP_pressure;BME280_temperature;BME280_humidity;BME280_pressure;Samples;Min_cycle;Max_cycle;Signal;HPM_P1;HPM_P2
2023/07/01 00:02:00;;;;;;;11.67;11.27;;;18.70;99.90;;;;;;5029297;28;20461;-66
2023/07/01 00:04:27;;;;;;;11.23;10.83;;;18.70;99.90;;;;;;5039462;28;20992;-65
2023/07/01 00:06:56;;;;;;;12.43;11.63;;;18.70;99.90;;;;;;5030040;28;20952;-65
2023/07/01 00:09:23;;;;;;;11.27;10.87;;;18.70;99.90;;;;;;5035411;28;20468;-66
2023/07/01 00:11:50;;;;;;;11.20;10.80;;;18.70;99.90;;;;;;5039587;28;20506;-66
2023/07/01 00:14:17;;;;;;;10.83;10.43;;;18.70;99.90;;;;;;5040537;28;20464;-65
2023/07/01 00:16:44;;;;;;;11.20;10.80;;;18.70;99.90;;;;;;5039961;28;20506;-64
2023/07/01 00:19:11;;;;;;;11.30;10.90;;;18.60;99.90;;;;;;5041787;28;20464;-65
2023/07/01 00:21:37;;;;;;;11.10;10.70;;;18.60;99.90;;;;;;5041344;28;20456;-64
2023/07/01 00:24:06;;;;;;;11.00;10.60;;;18.60;99.90;;;;;;5042942;28;20472;-65
2023/07/01 00:26:33;;;;;;;11.30;10.90;;;18.50;99.90;;;;;;5035868;28;20468;-65
2023/07/01 00:29:00;;;;;;;11.73;10.77;;;18.50;99.90;;;;;;5033707;28;20713;-65
2023/07/01 00:31:27;;;;;;;11.50;11.10;;;18.50;99.90;;;;;;5036524;28;20727;-66
2023/07/01 00:33:54;;;;;;;11.07;10.67;;;18.50;99.90;;;;;;5047115;28;20937;-66
2023/07/01 00:36:22;;;;;;;11.17;10.80;;;18.50;99.90;;;;;;5042657;28;20853;-64
2023/07/01 00:38:49;;;;;;;11.30;10.90;;;18.40;99.90;;;;;;5046953;28;21030;-66
2023/07/01 00:41:20;;;;;;;11.40;11.00;;;18.40;99.90;;;;;;5049367;28;20533;-64
2023/07/01 00:43:47;;;;;;;10.83;10.43;;;18.40;99.90;;;;;;5043156;28;20467;-65
2023/07/01 00:46:16;;;;;;;11.03;10.63;;;18.50;99.90;;;;;;5043082;28;20460;-65
2023/07/01 00:48:43;;;;;;;11.83;11.20;;;18.40;99.90;;;;;;5049322;28;20478;-67
2023/07/01 00:51:11;;;;;;;11.50;11.10;;;18.50;99.90;;;;;;5032691;28;20468;-66
2023/07/01 00:53:39;;;;;;;11.77;11.37;;;18.40;99.90;;;;;;5047114;28;20881;-64
2023/07/01 00:56:06;;;;;;;11.17;10.77;;;18.40;99.90;;;;;;5043129;28;20549;-65
2023/07/01 00:58:35;;;;;;;11.30;10.70;;;18.50;99.90;;;;;;5036310;28;20460;-67
2023/07/01 01:01:08;;;;;;;11.23;10.83;;;18.50;99.90;;;;;;5046434;28;20506;-67
2023/07/01 01:03:42;;;;;;;11.00;10.60;;;18.50;99.90;;;;;;5037278;28;20794;-65
2023/07/01 01:06:16;;;;;;;11.10;10.70;;;18.40;99.90;;;;;;5043251;28;20950;-65
2023/07/01 01:08:54;;;;;;;11.80;11.40;;;18.40;99.90;;;;;;5046492;28;20551;-66
2023/07/01 01:11:23;;;;;;;11.47;11.07;;;18.40;99.90;;;;;;5041563;28;20505;-66
2023/07/01 01:13:52;;;;;;;12.33;11.60;;;18.40;99.90;;;;;;5031619;28;20490;-65
2023/07/01 01:16:21;;;;;;;11.00;10.60;;;18.50;99.90;;;;;;5041399;28;20500;-64
2023/07/01 01:18:50;;;;;;;10.93;10.53;;;18.50;99.90;;;;;;5036953;28;21079;-65
2023/07/01 01:21:18;;;;;;;11.50;11.10;;;18.40;99.90;;;;;;5036603;28;20464;-64
2023/07/01 01:23:55;;;;;;;11.33;10.93;;;18.40;99.90;;;;;;5046384;28;20554;-66
2023/07/01 01:26:23;;;;;;;11.63;11.13;;;18.40;99.90;;;;;;5036634;28;20463;-65
2023/07/01 01:28:52;;;;;;;11.60;11.20;;;18.40;99.90;;;;;;5042005;28;20460;-64
2023/07/01 01:31:19;;;;;;;14.47;13.77;;;18.50;99.90;;;;;;5044807;28;20558;-66
2023/07/01 01:33:48;;;;;;;12.10;11.60;;;18.50;99.90;;;;;;5042424;28;20460;-67
2023/07/01 01:36:24;;;;;;;11.90;11.40;;;18.50;99.90;;;;;;5040254;28;21043;-66
2023/07/01 01:38:52;;;;;;;11.83;11.33;;;18.50;99.90;;;;;;5044181;28;20842;-65
2023/07/01 01:41:24;;;;;;;11.40;11.00;;;18.50;99.90;;;;;;5039856;28;20520;-67
2023/07/01 01:43:59;;;;;;;10.90;10.50;;;18.50;99.90;;;;;;5049062;28;20470;-64
2023/07/01 01:46:27;;;;;;;10.90;10.50;;;18.50;99.90;;;;;;5029555;28;20460;-65
2023/07/01 01:48:56;;;;;;;11.20;10.80;;;18.50;99.90;;;;;;5041129;28;20510;-64
2023/07/01 01:51:25;;;;;;;11.77;11.27;;;18.40;99.90;;;;;;5046785;28;20792;-65
2023/07/01 01:53:53;;;;;;;11.07;10.67;;;18.40;99.90;;;;;;5036170;28;20469;-66
2023/07/01 01:56:21;;;;;;;11.23;10.83;;;18.40;99.90;;;;;;5040328;28;20492;-66
2023/07/01 01:58:48;;;;;;;11.70;11.20;;;18.40;99.90;;;;;;5039299;28;20460;-66
2023/07/01 02:01:17;;;;;;;10.87;10.47;;;18.40;99.90;;;;;;5039117;28;20472;-64
2023/07/01 02:03:46;;;;;;;10.67;10.27;;;18.40;99.90;;;;;;5033433;28;20472;-64
2023/07/01 02:06:13;;;;;;;10.70;10.30;;;18.40;99.90;;;;;;5038208;28;20461;-66
2023/07/01 02:08:40;;;;;;;11.80;11.30;;;18.40;99.90;;;;;;5040574;28;20494;-65
2023/07/01 02:11:07;;;;;;;10.90;10.50;;;18.50;99.90;;;;;;5036676;28;20462;-65
2023/07/01 02:13:34;;;;;;;11.40;11.00;;;18.40;99.90;;;;;;5043522;28;20459;-66
2023/07/01 02:16:01;;;;;;;11.50;11.10;;;18.40;99.90;;;;;;5031799;28;20492;-67
2023/07/01 02:18:29;;;;;;;10.90;10.50;;;18.50;99.90;;;;;;5038180;28;20882;-65
2023/07/01 02:20:56;;;;;;;11.20;10.80;;;18.40;99.90;;;;;;5040431;28;20467;-65
2023/07/01 02:23:24;;;;;;;11.53;10.97;;;18.40;99.90;;;;;;5043526;28;20740;-65
2023/07/01 02:25:51;;;;;;;11.40;11.00;;;18.50;99.90;;;;;;5039676;28;20849;-64
2023/07/01 02:28:18;;;;;;;11.87;11.37;;;18.50;99.90;;;;;;5048292;28;20736;-67
2023/07/01 02:30:44;;;;;;;11.30;10.90;;;18.40;99.90;;;;;;5037146;28;20552;-65
2023/07/01 02:33:11;;;;;;;11.50;10.80;;;18.40;99.90;;;;;;5029135;28;20507;-66
2023/07/01 02:35:39;;;;;;;11.53;11.13;;;18.40;99.90;;;;;;5042120;28;20729;-64
2023/07/01 02:38:08;;;;;;;11.40;11.00;;;18.40;99.90;;;;;;5040674;28;20472;-64
2023/07/01 02:40:35;;;;;;;11.10;10.70;;;18.40;99.90;;;;;;5048090;28;20455;-66
2023/07/01 02:43:03;;;;;;;12.43;11.57;;;18.40;99.90;;;;;;5038350;28;20465;-66
2023/07/01 02:45:29;;;;;;;12.50;12.00;;;18.50;99.90;;;;;;5038155;28;20464;-64
2023/07/01 02:47:56;;;;;;;11.23;10.83;;;18.50;99.90;;;;;;5039058;28;21028;-65
2023/07/01 02:50:23;;;;;;;12.80;12.20;;;18.40;99.90;;;;;;5042827;28;20463;-65
2023/07/01 02:52:51;;;;;;;11.30;10.90;;;18.40;99.90;;;;;;5046777;28;20464;-66
2023/07/01 02:55:19;;;;;;;11.50;11.10;;;18.40;99.90;;;;;;5035260;28;20471;-67
2023/07/01 02:57:46;;;;;;;12.03;11.63;;;18.50;99.90;;;;;;5037746;28;20501;-64
2023/07/01 03:00:14;;;;;;;12.17;11.60;;;18.50;99.90;;;;;;5046153;28;20957;-65
2023/07/01 03:02:41;;;;;;;11.27;10.87;;;18.40;99.90;;;;;;5032173;28;21236;-64
2023/07/01 03:05:09;;;;;;;11.10;10.70;;;18.20;99.90;;;;;;5041420;28;20471;-64
2023/07/01 03:07:36;;;;;;;13.70;12.83;;;18.10;99.90;;;;;;5036091;28;20531;-65
2023/07/01 03:10:06;;;;;;;11.27;10.87;;;18.10;99.90;;;;;;5034247;28;20472;-64
2023/07/01 03:12:33;;;;;;;11.07;10.67;;;18.20;99.90;;;;;;5032702;28;20479;-67
2023/07/01 03:14:59;;;;;;;11.50;11.00;;;18.20;99.90;;;;;;5037492;28;20930;-63
2023/07/01 03:17:26;;;;;;;11.30;10.90;;;18.30;99.90;;;;;;5031804;28;20495;-66
2023/07/01 03:19:53;;;;;;;10.90;10.50;;;18.30;99.90;;;;;;5037829;28;20939;-64
2023/07/01 03:22:20;;;;;;;11.00;10.60;;;18.20;99.90;;;;;;5041690;28;20466;-65
2023/07/01 03:24:47;;;;;;;12.27;11.57;;;18.30;99.90;;;;;;5038913;28;20472;-66
2023/07/01 03:27:16;;;;;;;11.47;11.07;;;18.30;99.90;;;;;;5047407;28;20993;-65
2023/07/01 03:29:43;;;;;;;11.50;11.10;;;18.40;99.90;;;;;;5038619;28;20467;-66
2023/07/01 03:32:10;;;;;;;11.10;10.70;;;18.40;99.90;;;;;;5038693;28;20479;-66
2023/07/01 03:34:38;;;;;;;11.70;11.30;;;18.30;99.90;;;;;;5047226;28;20487;-65
2023/07/01 03:37:06;;;;;;;11.93;11.53;;;18.40;99.90;;;;;;5038774;28;20561;-64
2023/07/01 03:39:33;;;;;;;11.70;11.30;;;18.40;99.90;;;;;;5042769;28;20555;-65
2023/07/01 03:41:59;;;;;;;12.33;11.83;;;18.40;99.90;;;;;;5034088;28;20475;-65
2023/07/01 03:44:27;;;;;;;11.60;11.20;;;18.40;99.90;;;;;;5038895;28;21246;-65
2023/07/01 03:46:54;;;;;;;12.60;12.10;;;18.40;99.90;;;;;;5044500;28;20452;-64
2023/07/01 03:49:21;;;;;;;12.77;12.27;;;18.40;99.90;;;;;;5040190;28;20465;-66
2023/07/01 03:51:48;;;;;;;13.17;12.67;;;18.40;99.90;;;;;;5041458;28;20652;-66
2023/07/01 03:54:15;;;;;;;12.47;11.97;;;18.40;99.90;;;;;;5028868;28;20552;-65
2023/07/01 03:56:42;;;;;;;12.10;11.60;;;18.40;99.90;;;;;;5039382;28;20483;-64
2023/07/01 03:59:09;;;;;;;12.77;12.17;;;18.50;99.90;;;;;;5039223;28;20465;-64
2023/07/01 04:01:38;;;;;;;12.73;12.00;;;18.60;99.90;;;;;;5032347;28;20854;-65
2023/07/01 04:04:05;;;;;;;12.10;11.70;;;18.60;99.90;;;;;;5040097;28;20457;-65
2023/07/01 04:06:31;;;;;;;11.87;11.47;;;18.50;99.90;;;;;;5040995;28;20551;-64
2023/07/01 04:08:58;;;;;;;12.03;11.63;;;18.60;99.90;;;;;;5041863;28;20470;-66
2023/07/01 04:11:26;;;;;;;12.73;12.23;;;18.60;99.90;;;;;;5044547;28;20545;-65
2023/07/01 04:13:53;;;;;;;12.43;11.93;;;18.70;99.90;;;;;;5042429;28;20871;-65
2023/07/01 04:16:20;;;;;;;13.17;12.67;;;18.60;99.90;;;;;;5037678;28;20572;-64
2023/07/01 04:18:48;;;;;;;13.00;12.50;;;18.70;99.90;;;;;;5040845;28;20890;-65
2023/07/01 04:21:16;;;;;;;12.03;11.63;;;18.70;99.90;;;;;;5033411;28;21009;-64
2023/07/01 04:23:43;;;;;;;12.60;11.90;;;18.70;99.90;;;;;;5046808;28;20812;-65
2023/07/01 04:26:10;;;;;;;12.60;12.10;;;18.80;99.90;;;;;;5037917;28;20869;-67
2023/07/01 04:28:37;;;;;;;12.70;12.20;;;18.80;99.90;;;;;;5039655;28;20479;-65
2023/07/01 04:31:04;;;;;;;12.40;11.90;;;18.80;99.90;;;;;;5043260;28;20571;-65
2023/07/01 04:33:31;;;;;;;12.00;11.60;;;18.80;99.90;;;;;;5041890;28;20935;-67
2023/07/01 04:35:59;;;;;;;11.93;11.53;;;18.90;99.90;;;;;;5043712;28;20558;-65
2023/07/01 04:38:26;;;;;;;12.60;12.10;;;19.00;99.90;;;;;;5036517;28;20539;-66
2023/07/01 04:40:54;;;;;;;13.77;13.07;;;19.10;99.90;;;;;;5037413;28;20874;-65
2023/07/01 04:43:21;;;;;;;12.70;12.20;;;19.20;99.90;;;;;;5046504;28;20533;-65
2023/07/01 04:45:49;;;;;;;12.20;11.70;;;19.20;99.90;;;;;;5036738;28;20566;-65
2023/07/01 04:48:16;;;;;;;12.53;12.03;;;19.20;99.90;;;;;;5044991;28;20484;-64
2023/07/01 04:50:44;;;;;;;13.40;12.90;;;19.20;99.90;;;;;;5031523;28;20533;-65
2023/07/01 04:53:12;;;;;;;13.03;12.43;;;19.30;99.90;;;;;;5042749;28;20950;-67
2023/07/01 04:55:39;;;;;;;12.57;12.07;;;19.30;99.90;;;;;;5039872;28;20460;-66
2023/07/01 04:58:06;;;;;;;12.70;12.20;;;19.20;99.90;;;;;;5036387;28;20491;-65
2023/07/01 05:00:34;;;;;;;12.20;11.70;;;19.30;99.90;;;;;;5044647;28;20539;-66
2023/07/01 05:03:01;;;;;;;12.30;11.80;;;19.20;99.90;;;;;;5029195;28;20465;-66
2023/07/01 05:05:27;;;;;;;12.70;12.07;;;19.20;99.90;;;;;;5034104;28;20472;-64
2023/07/01 05:07:54;;;;;;;11.93;11.43;;;19.10;99.90;;;;;;5033760;28;20513;-64
2023/07/01 05:10:23;;;;;;;12.93;12.33;;;19.10;99.90;;;;;;5041568;28;20997;-66
2023/07/01 05:12:50;;;;;;;12.40;11.90;;;19.10;99.90;;;;;;5029735;28;20580;-65
2023/07/01 05:15:17;;;;;;;11.93;11.40;;;19.10;99.90;;;;;;5033861;28;20549;-65
2023/07/01 05:17:44;;;;;;;12.30;11.80;;;19.10;99.90;;;;;;5034487;28;20488;-65
2023/07/01 05:20:12;;;;;;;12.40;11.90;;;19.20;99.90;;;;;;5040675;28;21654;-65
2023/07/01 05:22:39;;;;;;;12.43;11.93;;;19.10;99.90;;;;;;5044470;28;21028;-65
2023/07/01 05:25:07;;;;;;;12.73;12.10;;;18.90;99.90;;;;;;5038514;28;20463;-65
2023/07/01 05:27:35;;;;;;;12.70;12.00;;;19.00;99.90;;;;;;5044863;28;20956;-64
2023/07/01 05:30:01;;;;;;;12.47;11.97;;;18.90;99.90;;;;;;5038491;28;20808;-65
2023/07/01 05:32:29;;;;;;;11.77;11.33;;;18.90;99.90;;;;;;5035445;28;20465;-67
2023/07/01 05:34:55;;;;;;;11.93;11.23;;;18.90;99.90;;;;;;5039499;28;20456;-65
2023/07/01 05:37:22;;;;;;;13.00;12.40;;;18.80;99.90;;;;;;5042128;28;20513;-65
2023/07/01 05:39:50;;;;;;;15.13;14.23;;;18.50;99.90;;;;;;5044678;28;20541;-66
2023/07/01 05:42:17;;;;;;;16.57;15.00;;;18.10;99.90;;;;;;5041326;28;21121;-65
2023/07/01 05:44:45;;;;;;;16.30;15.30;;;17.70;99.90;;;;;;5043219;28;20464;-66
2023/07/01 05:47:12;;;;;;;15.93;15.13;;;17.30;99.90;;;;;;5045018;28;20486;-66
2023/07/01 05:49:39;;;;;;;15.37;14.57;;;17.00;99.90;;;;;;5041637;28;20705;-66
2023/07/01 05:52:06;;;;;;;13.83;13.23;;;16.90;99.90;;;;;;5043474;28;20970;-66
2023/07/01 05:54:33;;;;;;;14.27;13.67;;;16.90;99.90;;;;;;5044593;28;21042;-66
2023/07/01 05:57:00;;;;;;;15.27;14.57;;;16.90;99.90;;;;;;5039191;28;20503;-65
2023/07/01 05:59:27;;;;;;;17.00;16.10;;;16.80;99.90;;;;;;5049533;28;20460;-67
2023/07/01 06:01:55;;;;;;;18.10;17.07;;;16.80;99.90;;;;;;5041115;28;20542;-65
2023/07/01 06:04:22;;;;;;;16.40;15.60;;;16.90;99.90;;;;;;5038105;28;20467;-66
2023/07/01 06:06:49;;;;;;;17.33;16.33;;;16.80;99.90;;;;;;5040732;28;20471;-64
2023/07/01 06:09:17;;;;;;;16.47;15.60;;;16.90;99.90;;;;;;5037235;28;20550;-66
2023/07/01 06:11:43;;;;;;;16.97;16.07;;;16.90;99.90;;;;;;5042085;28;20885;-66
2023/07/01 06:14:10;;;;;;;15.70;15.00;;;16.90;99.90;;;;;;5032984;28;20475;-65
2023/07/01 06:16:38;;;;;;;15.50;14.80;;;16.80;99.90;;;;;;5036771;28;20731;-66
2023/07/01 06:19:06;;;;;;;15.63;14.93;;;16.80;99.90;;;;;;5039514;28;20461;-64
2023/07/01 06:21:33;;;;;;;17.60;16.43;;;16.90;99.90;;;;;;5040074;28;20464;-64
2023/07/01 06:24:00;;;;;;;17.30;16.10;;;16.80;99.90;;;;;;5039562;28;20456;-67
2023/07/01 06:26:27;;;;;;;16.83;15.53;;;16.80;99.90;;;;;;5043594;28;21049;-65
2023/07/01 06:28:53;;;;;;;16.07;15.27;;;16.70;99.90;;;;;;5042140;28;20514;-66
2023/07/01 06:31:20;;;;;;;14.90;14.20;;;16.70;99.90;;;;;;5038163;28;20882;-64
2023/07/01 06:33:47;;;;;;;14.23;13.63;;;16.70;99.90;;;;;;5048168;28;20957;-67
2023/07/01 06:36:17;;;;;;;14.47;13.87;;;16.70;99.90;;;;;;5040662;28;20483;-65
2023/07/01 06:38:46;;;;;;;13.57;12.97;;;16.70;99.90;;;;;;5035957;28;20961;-65
2023/07/01 06:41:13;;;;;;;13.10;12.60;;;16.70;99.90;;;;;;5039923;28;20467;-65
2023/07/01 06:43:40;;;;;;;13.80;13.20;;;16.70;99.90;;;;;;5048638;28;20459;-65
2023/07/01 06:46:07;;;;;;;13.13;12.53;;;16.80;99.90;;;;;;5042394;28;20671;-65
2023/07/01 06:48:33;;;;;;;13.40;12.80;;;16.90;99.90;;;;;;5040290;28;21007;-65
2023/07/01 06:51:00;;;;;;;13.70;13.10;;;16.90;99.90;;;;;;5040881;28;20460;-65
2023/07/01 06:53:28;;;;;;;13.80;13.20;;;17.10;99.90;;;;;;5044568;28;20460;-66
2023/07/01 06:55:55;;;;;;;12.93;12.33;;;16.90;99.90;;;;;;5037456;28;20889;-65
2023/07/01 06:58:22;;;;;;;13.10;12.50;;;17.00;99.90;;;;;;5033278;28;21037;-65
2023/07/01 07:00:50;;;;;;;11.93;11.43;;;17.00;99.90;;;;;;5036167;28;20466;-66
2023/07/01 07:03:17;;;;;;;11.17;10.77;;;17.00;99.90;;;;;;5038417;28;20893;-67
2023/07/01 07:05:44;;;;;;;10.60;10.20;;;17.00;99.90;;;;;;5040295;28;20915;-66
2023/07/01 07:08:11;;;;;;;9.93;9.43;;;17.00;99.90;;;;;;5035515;28;20460;-65
2023/07/01 07:10:40;;;;;;;8.23;7.63;;;17.10;99.90;;;;;;5047678;28;20715;-65
2023/07/01 07:13:08;;;;;;;7.30;7.00;;;17.10;99.90;;;;;;5036336;28;20674;-66
2023/07/01 07:15:35;;;;;;;7.00;6.63;;;17.00;99.90;;;;;;5035074;28;20856;-67
2023/07/01 07:18:02;;;;;;;5.37;5.17;;;17.00;99.90;;;;;;5043017;28;20523;-66
2023/07/01 07:20:29;;;;;;;5.47;5.27;;;17.00;99.90;;;;;;5044175;28;21029;-66
2023/07/01 07:22:56;;;;;;;5.17;5.00;;;17.10;99.90;;;;;;5029237;28;20453;-65
2023/07/01 07:25:23;;;;;;;6.87;6.67;;;17.30;99.90;;;;;;5033002;28;20530;-65
2023/07/01 07:27:51;;;;;;;6.23;6.03;;;17.50;99.90;;;;;;5041061;28;20782;-65
2023/07/01 07:30:19;;;;;;;8.13;7.73;;;17.60;99.90;;;;;;5034153;28;20866;-66
2023/07/01 07:32:45;;;;;;;7.47;7.07;;;17.60;99.90;;;;;;5043378;28;20464;-66
2023/07/01 07:35:12;;;;;;;7.20;6.97;;;17.70;99.90;;;;;;5031367;28;20570;-66
2023/07/01 07:37:40;;;;;;;7.33;7.03;;;17.90;99.90;;;;;;5042244;28;20488;-66
2023/07/01 07:40:08;;;;;;;7.50;7.10;;;18.00;99.90;;;;;;5043519;28;20871;-65
2023/07/01 07:42:35;;;;;;;7.60;7.30;;;18.10;99.90;;;;;;5038333;28;20566;-66
2023/07/01 07:45:03;;;;;;;7.33;7.10;;;18.30;99.90;;;;;;5033917;28;20525;-66
2023/07/01 07:47:31;;;;;;;7.40;7.20;;;18.50;99.90;;;;;;5042428;28;20475;-66
2023/07/01 07:49:58;;;;;;;7.60;7.30;;;18.80;99.90;;;;;;5034473;28;20460;-65
2023/07/01 07:52:24;;;;;;;8.47;8.17;;;19.10;99.90;;;;;;5038771;28;20873;-65
2023/07/01 07:54:53;;;;;;;9.23;8.60;;;19.40;99.90;;;;;;5039233;28;20457;-65
2023/07/01 07:57:19;;;;;;;10.10;9.70;;;19.60;99.90;;;;;;5037226;28;20471;-65
2023/07/01 07:59:46;;;;;;;10.27;9.87;;;19.40;99.90;;;;;;5043873;28;20886;-65
2023/07/01 08:02:14;;;;;;;9.00;8.60;;;19.20;99.90;;;;;;5033150;28;20461;-65
2023/07/01 08:04:41;;;;;;;9.40;9.10;;;19.20;99.90;;;;;;5038304;28;20506;-66
2023/07/01 08:07:08;;;;;;;9.70;9.30;;;19.20;99.90;;;;;;5037850;28;20467;-66
2023/07/01 08:09:36;;;;;;;9.47;9.00;;;19.10;99.90;;;;;;5037662;28;20999;-66
2023/07/01 08:12:03;;;;;;;9.50;9.10;;;19.30;99.90;;;;;;5046681;28;20471;-65
2023/07/01 08:14:31;;;;;;;9.70;9.40;;;19.50;99.90;;;;;;5037276;28;20751;-66
2023/07/01 08:16:59;;;;;;;10.43;10.03;;;19.60;99.90;;;;;;5040360;28;20460;-67
2023/07/01 08:19:28;;;;;;;8.47;8.07;;;19.60;99.90;;;;;;5032665;28;20893;-64
2023/07/01 08:21:55;;;;;;;7.83;7.53;;;19.50;99.90;;;;;;5040825;28;20455;-65
2023/07/01 08:24:23;;;;;;;6.90;6.70;;;18.90;99.90;;;;;;5043252;28;20996;-64
2023/07/01 08:26:49;;;;;;;6.70;6.50;;;18.70;99.90;;;;;;5037352;28;20478;-66
2023/07/01 08:29:16;;;;;;;7.20;7.00;;;18.40;99.90;;;;;;5032925;28;20463;-66
2023/07/01 08:31:43;;;;;;;8.10;7.80;;;18.20;99.90;;;;;;5035704;28;20797;-65
2023/07/01 08:34:11;;;;;;;7.70;7.40;;;18.20;99.90;;;;;;5046446;28;20463;-67
2023/07/01 08:36:39;;;;;;;7.20;6.90;;;18.00;99.90;;;;;;5037564;28;20459;-65
2023/07/01 08:39:07;;;;;;;6.63;6.33;;;17.90;99.90;;;;;;5044332;28;20692;-67
2023/07/01 08:41:39;;;;;;;6.33;6.13;;;17.90;99.90;;;;;;5041000;28;20468;-64
2023/07/01 08:44:08;;;;;;;7.00;6.70;;;18.00;99.90;;;;;;5042005;28;20533;-65
2023/07/01 08:46:36;;;;;;;6.23;5.90;;;18.10;99.90;;;;;;5038241;28;20460;-64
2023/07/01 08:49:03;;;;;;;4.97;4.87;;;18.20;99.90;;;;;;5035629;28;20475;-65
2023/07/01 08:51:32;;;;;;;7.03;6.63;;;18.50;99.90;;;;;;5037354;28;20470;-66
2023/07/01 08:54:03;;;;;;;9.00;7.93;;;18.70;99.90;;;;;;5046881;28;20841;-65
2023/07/01 08:56:31;;;;;;;7.63;7.33;;;19.00;99.90;;;;;;5042165;28;20471;-66
2023/07/01 08:58:58;;;;;;;8.90;8.50;;;19.10;99.90;;;;;;5048189;28;20499;-65
2023/07/01 09:01:24;;;;;;;8.63;8.33;;;19.30;99.90;;;;;;5039523;28;20866;-65
2023/07/01 09:03:52;;;;;;;8.90;8.50;;;19.30;99.90;;;;;;5046742;28;20893;-65
2023/07/01 09:06:20;;;;;;;8.00;7.70;;;19.40;99.90;;;;;;5043633;28;20495;-64
2023/07/01 09:08:47;;;;;;;7.60;7.30;;;19.40;99.90;;;;;;5046275;28;20459;-66
2023/07/01 09:11:17;;;;;;;7.47;7.17;;;19.20;99.90;;;;;;5032340;28;21233;-66
2023/07/01 09:13:44;;;;;;;7.87;7.57;;;19.00;99.90;;;;;;5040311;28;20959;-65
2023/07/01 09:16:12;;;;;;;6.40;6.20;;;18.90;99.90;;;;;;5031021;28;20481;-64
2023/07/01 09:18:43;;;;;;;10.47;10.07;;;18.90;99.90;;;;;;5037165;28;20488;-65
2023/07/01 09:21:18;;;;;;;10.20;9.80;;;18.50;99.90;;;;;;5044241;28;20490;-65
2023/07/01 09:23:45;;;;;;;8.87;8.57;;;18.50;99.90;;;;;;5043716;28;20822;-66
2023/07/01 09:26:19;;;;;;;8.57;8.27;;;18.50;99.90;;;;;;5037778;28;20470;-65
2023/07/01 09:28:49;;;;;;;8.10;7.80;;;18.30;99.90;;;;;;5043780;28;20460;-65
2023/07/01 09:31:17;;;;;;;7.57;7.27;;;18.40;99.90;;;;;;5036370;28;20527;-67
2023/07/01 09:33:59;;;;;;;7.23;7.03;;;18.50;99.90;;;;;;5037104;28;20464;-66
2023/07/01 09:36:27;;;;;;;7.10;6.90;;;18.50;99.90;;;;;;5040110;28;20520;-66
2023/07/01 09:38:55;;;;;;;6.13;5.93;;;18.30;99.90;;;;;;5048058;28;20505;-67
2023/07/01 09:41:26;;;;;;;4.70;4.60;;;18.30;99.90;;;;;;5046918;28;20451;-65
2023/07/01 09:43:54;;;;;;;4.20;4.10;;;18.30;99.90;;;;;;5038902;28;20555;-66
2023/07/01 09:46:22;;;;;;;4.50;4.40;;;18.40;99.90;;;;;;5039627;28;20476;-66
2023/07/01 09:48:53;;;;;;;5.60;5.40;;;18.50;99.90;;;;;;5045724;28;20820;-67
2023/07/01 09:51:20;;;;;;;5.50;5.30;;;18.80;99.90;;;;;;5044347;28;20531;-67
2023/07/01 09:53:48;;;;;;;6.20;6.00;;;18.80;99.90;;;;;;5038859;28;20464;-66
2023/07/01 09:56:17;;;;;;;7.30;7.10;;;19.00;99.90;;;;;;5042778;28;20855;-66
2023/07/01 09:58:47;;;;;;;7.77;7.47;;;18.90;99.90;;;;;;5042950;28;21105;-66
2023/07/01 10:01:15;;;;;;;8.73;8.43;;;18.80;99.90;;;;;;5033361;28;20463;-65
2023/07/01 10:03:42;;;;;;;8.60;8.30;;;18.70;99.90;;;;;;5037476;28;20684;-65
2023/07/01 10:06:10;;;;;;;7.10;6.90;;;18.50;99.90;;;;;;5038882;28;20472;-65
2023/07/01 10:08:37;;;;;;;6.50;6.30;;;18.90;99.90;;;;;;5037286;28;20468;-66
2023/07/01 10:11:07;;;;;;;6.30;6.10;;;18.90;99.90;;;;;;5033506;28;20555;-66
2023/07/01 10:13:39;;;;;;;6.43;6.23;;;19.20;99.90;;;;;;5039175;28;20460;-67
2023/07/01 10:16:09;;;;;;;5.20;5.10;;;19.30;99.90;;;;;;5038356;28;20580;-65
2023/07/01 10:18:36;;;;;;;5.63;5.43;;;19.30;99.90;;;;;;5028980;28;20485;-66
2023/07/01 10:21:29;;;;;;;6.30;5.90;;;19.30;99.90;;;;;;5037942;28;20552;-65
2023/07/01 10:23:57;;;;;;;4.87;4.70;;;18.90;99.90;;;;;;5042065;28;20455;-67
2023/07/01 10:26:39;;;;;;;5.03;4.87;;;18.80;99.90;;;;;;5045831;28;20463;-66
2023/07/01 10:29:55;;;;;;;4.77;4.57;;;18.80;99.90;;;;;;5044330;28;20983;-65
2023/07/01 10:32:34;;;;;;;5.00;4.90;;;18.90;99.90;;;;;;4958425;28;20952;-66
2023/07/01 10:35:15;;;;;;;5.60;5.40;;;18.90;99.90;;;;;;5030984;28;20460;-66
2023/07/01 10:37:44;;;;;;;5.90;5.70;;;19.10;99.90;;;;;;5042160;28;20805;-66
2023/07/01 10:40:43;;;;;;;6.47;6.27;;;19.10;99.90;;;;;;5040338;28;20480;-65
2023/07/01 10:43:27;;;;;;;6.27;6.07;;;19.30;99.90;;;;;;5040297;28;20471;-66
2023/07/01 10:46:12;;;;;;;6.50;6.30;;;19.50;99.90;;;;;;5042736;28;20522;-67
2023/07/01 10:48:41;;;;;;;6.87;6.67;;;19.50;99.90;;;;;;5040999;28;20491;-66
2023/07/01 10:51:11;;;;;;;8.30;8.00;;;20.00;99.90;;;;;;5043198;28;20836;-65
2023/07/01 10:53:58;;;;;;;8.37;8.07;;;20.20;99.90;;;;;;5043352;28;20955;-66
2023/07/01 10:56:25;;;;;;;9.67;9.30;;;20.50;99.90;;;;;;5046471;28;20507;-66
2023/07/01 10:59:19;;;;;;;10.27;9.87;;;20.60;99.90;;;;;;5040449;28;20496;-65
2023/07/01 11:01:47;;;;;;;9.40;9.10;;;20.60;99.90;;;;;;5024703;28;20464;-67
2023/07/01 11:04:16;;;;;;;9.67;9.30;;;20.50;99.90;;;;;;5042838;28;20455;-66
2023/07/01 11:06:47;;;;;;;9.47;9.17;;;20.40;99.90;;;;;;5039064;28;20550;-67
2023/07/01 11:09:15;;;;;;;9.60;9.30;;;20.40;99.90;;;;;;5037697;28;20472;-67
2023/07/01 11:11:42;;;;;;;10.27;9.87;;;20.90;99.90;;;;;;5043825;28;20455;-67
2023/07/01 11:14:10;;;;;;;10.20;9.80;;;21.20;99.90;;;;;;5040515;28;20482;-66
2023/07/01 11:16:38;;;;;;;10.00;9.60;;;21.60;99.90;;;;;;5034805;28;20495;-66
2023/07/01 11:19:06;;;;;;;10.60;10.20;;;21.70;99.90;;;;;;5038470;28;20562;-67
2023/07/01 11:21:34;;;;;;;10.80;10.40;;;21.70;99.90;;;;;;5041109;28;20749;-67
2023/07/01 11:24:03;;;;;;;10.90;10.50;;;21.90;99.90;;;;;;5044036;28;20464;-65
2023/07/01 11:26:32;;;;;;;11.30;10.80;;;21.70;99.90;;;;;;5042962;28;20463;-67
2023/07/01 11:28:59;;;;;;;11.33;10.93;;;21.50;99.90;;;;;;5046334;28;20456;-67
2023/07/01 11:31:30;;;;;;;11.27;10.87;;;21.30;99.90;;;;;;5036394;28;20464;-66
2023/07/01 11:33:57;;;;;;;10.70;10.30;;;21.10;99.90;;;;;;5030070;28;20499;-66
2023/07/01 11:36:38;;;;;;;10.20;9.80;;;21.10;99.90;;;;;;5042861;28;20468;-67
2023/07/01 11:39:09;;;;;;;11.30;10.80;;;21.10;99.90;;;;;;5041515;28;20488;-67
2023/07/01 11:41:37;;;;;;;10.20;9.80;;;21.10;99.90;;;;;;5035809;28;20963;-66
2023/07/01 11:44:07;;;;;;;11.27;10.80;;;20.90;99.90;;;;;;5043338;28;20475;-67
2023/07/01 11:46:36;;;;;;;11.23;10.73;;;20.90;99.90;;;;;;5044919;28;20458;-66
2023/07/01 11:49:18;;;;;;;10.77;10.37;;;21.30;99.90;;;;;;5032329;28;20479;-66
2023/07/01 11:51:48;;;;;;;10.87;10.47;;;21.70;99.90;;;;;;5036573;28;21057;-66
2023/07/01 11:54:16;;;;;;;10.70;10.30;;;21.90;99.90;;;;;;5038320;28;20460;-66
2023/07/01 11:56:44;;;;;;;11.30;10.80;;;21.90;99.90;;;;;;5030196;28;20459;-67
2023/07/01 11:59:11;;;;;;;11.17;10.77;;;21.90;99.90;;;;;;5032502;28;20484;-67
2023/07/01 12:01:39;;;;;;;12.23;11.73;;;22.10;99.90;;;;;;5039791;28;20517;-66
2023/07/01 12:04:17;;;;;;;11.80;11.10;;;22.50;99.90;;;;;;5042948;28;20457;-67
2023/07/01 12:06:46;;;;;;;11.93;11.43;;;22.70;99.90;;;;;;5027579;28;20464;-66
2023/07/01 12:09:29;;;;;;;12.00;11.50;;;22.70;99.90;;;;;;5039414;28;20502;-66
2023/07/01 12:11:56;;;;;;;11.80;11.13;;;22.40;99.90;;;;;;5028789;28;20515;-68
2023/07/01 12:14:24;;;;;;;11.63;11.23;;;22.20;99.90;;;;;;5031286;28;20544;-67
2023/07/01 12:16:52;;;;;;;11.83;11.43;;;22.20;99.90;;;;;;5038464;28;21103;-68
2023/07/01 12:19:20;;;;;;;12.10;11.60;;;22.10;99.90;;;;;;5036438;28;20483;-67
2023/07/01 12:21:49;;;;;;;11.40;11.00;;;22.10;99.90;;;;;;5045250;28;20463;-66
2023/07/01 12:24:18;;;;;;;13.20;12.70;;;22.40;99.90;;;;;;5036449;28;20460;-66
2023/07/01 12:26:45;;;;;;;12.17;11.67;;;22.20;99.90;;;;;;5040621;28;20906;-66
2023/07/01 12:29:12;;;;;;;11.60;11.20;;;22.50;99.90;;;;;;5039490;28;20468;-66
2023/07/01 12:31:41;;;;;;;11.30;10.90;;;22.50;99.90;;;;;;5038924;28;20460;-68
2023/07/01 12:34:08;;;;;;;10.90;10.50;;;22.80;99.90;;;;;;5034355;28;20463;-68
2023/07/01 12:36:36;;;;;;;11.60;11.20;;;22.40;99.90;;;;;;5040497;28;20460;-67
2023/07/01 12:39:06;;;;;;;11.50;11.10;;;22.40;99.90;;;;;;5042566;28;20864;-68
2023/07/01 12:41:35;;;;;;;11.20;10.80;;;22.10;99.90;;;;;;5033360;28;20488;-67